Time;durP1;ratioP1;P1;durP2;ratioP2;P2;SDS_P1;SDS_P2;PMS_P1;PMS_P2;Temp;Humidity;BMP_temperature;BMP_pressure;BME280_temperature;BME280_humidity;BME280_pressure;Samples;Min_cycle;Max_cycle;Signal;HPM_P1;HPM_P2
2021/04/02 00:00:55;;;;;;;25.00;14.83;;;;;;;16.41;34.19;99922.76;1744203;82;21513;-81
2021/04/02 00:03:34;;;;;;;31.23;17.27;;;;;;;16.36;34.24;99915.80;1743748;82;21082;-80
2021/04/02 00:06:04;;;;;;;42.08;22.27;;;;;;;16.33;34.37;99916.20;1744182;82;21070;-79
2021/04/02 00:08:32;;;;;;;63.55;27.77;;;;;;;16.31;34.39;99913.72;1744128;82;21105;-81
2021/04/02 00:11:06;;;;;;;56.10;28.17;;;;;;;16.30;34.44;99912.56;1744173;82;21208;-79
2021/04/02 00:13:44;;;;;;;57.83;27.75;;;;;;;16.30;34.62;99911.20;1744236;82;21089;-83
2021/04/02 00:16:16;;;;;;;50.73;24.77;;;;;;;16.30;34.55;99905.80;1744250;82;21496;-81
2021/04/02 00:18:45;;;;;;;34.35;18.27;;;;;;;16.28;34.58;99901.14;1744150;82;21146;-79
2021/04/02 00:21:14;;;;;;;27.05;14.93;;;;;;;16.26;34.52;99897.31;1744231;82;21069;-82
2021/04/02 00:23:42;;;;;;;22.65;14.60;;;;;;;16.24;34.49;99888.56;1744172;82;21537;-80
2021/04/02 00:26:17;;;;;;;24.30;12.93;;;;;;;16.22;34.45;99895.54;1744177;82;21133;-79
2021/04/02 00:28:50;;;;;;;26.20;13.48;;;;;;;16.19;34.29;99894.59;1744219;82;21580;-80
2021/04/02 00:31:19;;;;;;;20.82;13.65;;;;;;;16.17;34.33;99894.50;1743917;82;21145;-82
2021/04/02 00:33:46;;;;;;;20.90;14.03;;;;;;;16.17;34.31;99897.21;1744073;82;21440;-79
2021/04/02 00:36:13;;;;;;;23.10;13.18;;;;;;;16.18;34.26;99896.98;1743980;82;21553;-84
2021/04/02 00:38:40;;;;;;;;;;;;;;;16.19;34.32;99885.66;1746649;82;21113;-80
2021/04/02 00:41:14;;;;;;;24.35;14.40;;;;;;;16.18;34.39;99888.89;1744313;82;20311;-82
2021/04/02 00:43:46;;;;;;;23.15;14.07;;;;;;;16.17;34.22;99883.17;1744257;82;21110;-79
2021/04/02 00:46:15;;;;;;;24.10;15.85;;;;;;;16.17;34.27;99883.17;1744889;82;21094;-76
2021/04/02 00:48:43;;;;;;;23.47;15.45;;;;;;;16.15;34.19;99883.89;1744863;82;21162;-78
2021/04/02 00:51:28;;;;;;;27.35;15.72;;;;;;;16.12;34.12;99884.30;1714337;82;21182;-80
2021/04/02 00:53:57;;;;;;;27.27;15.13;;;;;;;16.11;34.12;99881.28;1735552;82;21169;-77
2021/04/02 00:56:24;;;;;;;25.08;15.08;;;;;;;16.10;34.10;99879.63;1746193;82;21111;-82
2021/04/02 00:58:53;;;;;;;23.67;14.73;;;;;;;16.14;34.08;99870.59;1744356;82;21090;-83
2021/04/02 01:01:21;;;;;;;25.15;13.78;;;;;;;16.11;33.98;99868.30;1744466;82;21089;-80
2021/04/02 01:03:48;;;;;;;24.47;14.25;;;;;;;16.03;34.16;99864.45;1744250;82;21098;-79
2021/04/02 01:06:21;;;;;;;22.35;14.93;;;;;;;16.00;34.15;99864.37;1745968;82;21584;-79
2021/04/02 01:08:48;;;;;;;26.25;14.33;;;;;;;15.98;34.14;99861.02;1744341;82;21129;-80
2021/04/02 01:11:18;;;;;;;27.55;14.90;;;;;;;15.93;34.21;99858.13;1744256;82;21189;-80
2021/04/02 01:13:56;;;;;;;27.98;15.68;;;;;;;15.91;34.31;99850.23;1744524;82;21117;-80
2021/04/02 01:16:32;;;;;;;26.42;15.25;;;;;;;15.87;34.33;99845.45;1745053;82;21058;-82
2021/04/02 01:19:12;;;;;;;24.25;15.03;;;;;;;15.82;34.31;99841.20;1744081;82;21070;-83
2021/04/02 01:21:52;;;;;;;28.73;15.43;;;;;;;15.78;34.45;99834.55;1744215;82;21512;-83
2021/04/02 01:25:00;;;;;;;29.05;14.90;;;;;;;15.77;34.41;99833.72;1743932;82;21129;-82
2021/04/02 01:28:18;;;;;;;26.50;15.78;;;;;;;15.76;34.37;99832.06;1743986;82;21193;-79
2021/04/02 01:30:46;;;;;;;51.20;25.35;;;;;;;15.72;34.34;99826.24;1685859;84;21184;-83
2021/04/02 01:33:13;;;;;;;76.42;35.15;;;;;;;15.69;34.48;99821.25;1726135;82;21095;-82
2021/04/02 01:35:41;;;;;;;71.82;34.73;;;;;;;15.65;34.57;99821.34;1744707;82;21094;-80
2021/04/02 01:38:18;;;;;;;69.05;33.65;;;;;;;15.61;34.64;99820.06;1743703;82;21221;-79
2021/04/02 01:40:50;;;;;;;46.93;24.97;;;;;;;15.57;34.71;99814.76;1743871;82;21201;-79
2021/04/02 01:43:21;;;;;;;55.17;24.50;;;;;;;15.58;34.69;99806.14;1744351;82;21146;-80
2021/04/02 01:45:49;;;;;;;38.08;19.73;;;;;;;15.52;34.70;99803.75;1744288;82;21137;-79
2021/04/02 01:48:18;;;;;;;27.93;16.87;;;;;;;15.52;34.82;99801.05;1744254;82;21196;-81
2021/04/02 01:50:48;;;;;;;26.40;14.55;;;;;;;15.52;34.82;99792.95;1720835;82;21213;-83
2021/04/02 01:53:17;;;;;;;23.07;13.60;;;;;;;15.55;34.71;99797.95;1743082;82;21196;-80
2021/04/02 01:55:46;;;;;;;21.90;13.48;;;;;;;15.52;34.93;99791.61;1721213;82;21200;-81
2021/04/02 01:58:14;;;;;;;18.75;13.10;;;;;;;15.54;34.69;99790.90;1720788;82;21521;-81
2021/04/02 02:00:47;;;;;;;19.55;13.32;;;;;;;15.55;34.72;99797.95;1744013;82;21205;-81
2021/04/02 02:03:17;;;;;;;19.30;12.00;;;;;;;15.54;34.72;99784.67;1744597;82;21097;-77
2021/04/02 02:05:47;;;;;;;21.77;12.47;;;;;;;15.48;34.78;99783.61;1744791;82;21217;-77
2021/04/02 02:08:18;;;;;;;22.25;13.35;;;;;;;15.40;35.08;99776.56;1742664;82;21162;-82
2021/04/02 02:10:48;;;;;;;21.68;13.10;;;;;;;15.41;34.90;99778.73;1745745;82;21650;-83
2021/04/02 02:13:16;;;;;;;21.23;14.25;;;;;;;15.39;34.83;99764.09;1743955;82;21659;-81
2021/04/02 02:15:46;;;;;;;24.02;14.13;;;;;;;15.39;34.84;99761.38;1743933;82;21177;-82
2021/04/02 02:18:17;;;;;;;22.48;14.45;;;;;;;15.41;34.71;99750.41;1746137;82;21134;-78
2021/04/02 02:20:46;;;;;;;27.52;14.78;;;;;;;15.40;34.68;99748.23;1748676;82;21106;-77
2021/04/02 02:23:17;;;;;;;35.13;14.93;;;;;;;15.38;34.69;99750.81;1722701;82;21576;-81
2021/04/02 02:25:45;;;;;;;35.68;16.07;;;;;;;15.38;34.75;99748.11;1744737;82;21149;-79
2021/04/02 02:28:15;;;;;;;28.35;15.15;;;;;;;15.35;34.77;99749.37;1743882;82;21153;-79
2021/04/02 02:30:43;;;;;;;27.65;14.83;;;;;;;15.34;34.79;99753.08;1743844;82;21174;-81
2021/04/02 02:33:30;;;;;;;80.42;16.82;;;;;;;15.32;34.79;99755.17;1723876;82;21141;-78
2021/04/02 02:36:00;;;;;;;27.55;15.10;;;;;;;15.27;34.91;99741.99;1737910;81;21117;-83
2021/04/02 02:38:28;;;;;;;23.62;14.33;;;;;;;15.31;34.87;99752.69;1744910;81;21122;-81
2021/04/02 02:40:57;;;;;;;23.15;15.78;;;;;;;15.30;34.86;99753.70;1695959;83;21181;-81
2021/04/02 02:43:25;;;;;;;32.50;16.50;;;;;;;15.27;34.79;99746.87;1715712;82;21094;-78
2021/04/02 02:45:54;;;;;;;27.75;15.93;;;;;;;15.26;34.74;99750.61;1684387;84;21089;-80
2021/04/02 02:48:22;;;;;;;28.90;16.05;;;;;;;15.23;34.85;99746.44;1692641;84;21099;-83
2021/04/02 02:50:54;;;;;;;27.20;15.58;;;;;;;15.20;34.94;99746.02;1715657;83;21079;-79
2021/04/02 02:53:26;;;;;;;29.57;16.15;;;;;;;15.17;34.93;99741.87;1764779;81;21518;-78
2021/04/02 02:55:55;;;;;;;26.87;15.40;;;;;;;15.16;35.12;99742.06;1714401;82;21213;-81
2021/04/02 02:58:25;;;;;;;26.48;16.48;;;;;;;15.15;34.89;99733.14;1715410;83;21364;-81
2021/04/02 03:00:53;;;;;;;24.52;15.43;;;;;;;15.13;34.86;99729.01;1685157;85;21477;-77
2021/04/02 03:03:21;;;;;;;25.05;14.83;;;;;;;15.10;35.06;99718.63;1743951;80;21185;-83
2021/04/02 03:05:52;;;;;;;21.80;13.10;;;;;;;15.07;35.00;99721.20;1698203;82;21512;-80
2021/04/02 03:08:24;;;;;;;25.27;13.30;;;;;;;15.02;35.08;99725.03;1777803;80;21212;-78
2021/04/02 03:10:54;;;;;;;21.07;13.48;;;;;;;15.01;35.10;99722.55;1782373;80;21616;-79
2021/04/02 03:13:23;;;;;;;23.18;14.25;;;;;;;14.99;35.10;99714.67;1772328;80;21074;-79
2021/04/02 03:15:51;;;;;;;20.40;13.03;;;;;;;14.97;35.14;99718.08;1766030;81;21161;-81
2021/04/02 03:18:21;;;;;;;20.62;12.93;;;;;;;14.99;35.32;99716.02;1732508;80;21138;-77
2021/04/02 03:20:50;;;;;;;18.35;12.80;;;;;;;14.96;35.32;99716.42;1766050;80;21197;-79
2021/04/02 03:23:18;;;;;;;22.17;14.60;;;;;;;14.93;35.37;99716.82;1759253;80;21213;-78
2021/04/02 03:25:47;;;;;;;32.00;16.60;;;;;;;14.91;35.35;99704.08;1714467;83;21198;-79
2021/04/02 03:28:16;;;;;;;61.58;27.10;;;;;;;14.86;35.51;99702.52;1694478;83;21744;-76
2021/04/02 03:30:46;;;;;;;59.67;28.85;;;;;;;14.81;35.63;99700.95;1743291;82;21232;-77
2021/04/02 03:33:27;;;;;;;83.22;36.77;;;;;;;14.77;35.77;99699.69;1720205;80;21220;-76
2021/04/02 03:36:01;;;;;;;81.20;36.10;;;;;;;14.76;35.86;99698.87;1762202;80;21138;-77
2021/04/02 03:38:33;;;;;;;35.38;20.40;;;;;;;14.76;35.93;99698.87;1765515;80;21668;-79
2021/04/02 03:41:03;;;;;;;31.93;17.10;;;;;;;14.77;35.95;99695.65;1764198;80;21178;-78
2021/04/02 03:43:33;;;;;;;25.45;15.68;;;;;;;14.77;35.87;99692.95;1728195;82;21213;-77
2021/04/02 03:46:01;;;;;;;28.65;15.53;;;;;;;14.79;35.80;99685.48;1762349;81;21205;-78
2021/04/02 03:48:30;;;;;;;25.52;15.63;;;;;;;14.77;35.83;99684.34;1708633;82;21673;-77
2021/04/02 03:50:59;;;;;;;22.48;15.10;;;;;;;14.78;35.81;99685.17;1707983;82;21227;-77
2021/04/02 03:53:31;;;;;;;21.90;14.58;;;;;;;14.78;35.80;99680.61;1764725;81;21194;-78
2021/04/02 03:56:00;;;;;;;25.88;13.62;;;;;;;14.47;36.29;99673.03;1762869;80;21425;-75
2021/04/02 03:58:29;;;;;;;25.12;14.15;;;;;;;14.73;36.00;99674.17;1753641;80;21212;-78
2021/04/02 04:01:09;;;;;;;27.73;17.98;;;;;;;14.56;36.25;99673.71;1731754;81;21704;-76
2021/04/02 04:03:39;;;;;;;24.82;15.75;;;;;;;14.60;36.23;99667.71;1738577;82;21188;-77
2021/04/02 04:06:12;;;;;;;25.77;14.65;;;;;;;14.71;36.02;99665.75;1744021;81;21224;-78
2021/04/02 04:08:40;;;;;;;23.07;14.33;;;;;;;14.75;36.04;99670.22;1741588;82;21201;-81
2021/04/02 04:11:10;;;;;;;24.18;13.75;;;;;;;14.78;36.06;99666.30;1742918;82;21242;-76
2021/04/02 04:13:42;;;;;;;25.48;15.65;;;;;;;14.81;36.14;99662.69;1741510;82;21738;-79
2021/04/02 04:16:37;;;;;;;21.23;13.90;;;;;;;14.81;36.18;99665.90;1740864;81;21249;-79
2021/04/02 04:19:05;;;;;;;22.42;14.00;;;;;;;14.74;36.42;99663.17;1741850;82;21184;-77
2021/04/02 04:21:39;;;;;;;19.27;13.53;;;;;;;14.54;36.96;99660.45;1726819;81;21757;-76
2021/04/02 04:24:12;;;;;;;19.98;13.22;;;;;;;14.77;36.67;99652.52;1738033;81;21161;-77
2021/04/02 04:26:40;;;;;;;21.25;13.58;;;;;;;14.82;36.48;99654.08;1709938;83;21177;-76
2021/04/02 04:29:07;;;;;;;25.75;13.88;;;;;;;14.75;36.65;99659.44;1706709;82;21533;-79
2021/04/02 04:31:34;;;;;;;21.40;13.93;;;;;;;14.82;36.56;99667.03;1755736;80;21202;-78
2021/04/02 04:34:01;;;;;;;;;;;;;;;14.85;36.46;99663.08;1722920;81;21519;-80
2021/04/02 04:36:30;;;;;;;21.42;13.78;;;;;;;14.85;36.41;99663.08;1726128;81;20296;-77
2021/04/02 04:38:59;;;;;;;24.70;14.98;;;;;;;14.76;36.61;99658.92;1740197;81;21193;-82
2021/04/02 04:41:26;;;;;;;29.50;14.90;;;;;;;14.71;36.85;99663.05;1714359;83;21212;-81
2021/04/02 04:43:55;;;;;;;36.50;16.77;;;;;;;14.74;36.98;99662.35;1697143;83;21212;-80
2021/04/02 04:46:23;;;;;;;29.05;15.90;;;;;;;14.76;36.97;99654.39;1689879;83;21137;-76
2021/04/02 04:48:50;;;;;;;23.98;14.65;;;;;;;14.74;36.86;99655.61;1723837;80;21123;-77
2021/04/02 04:51:18;;;;;;;;;;;;;;;14.74;36.92;99657.78;1731529;80;21133;-77
2021/04/02 04:53:49;;;;;;;31.90;15.83;;;;;;;14.74;37.03;99648.35;1729295;81;20234;-78
2021/04/02 04:56:16;;;;;;;28.95;14.85;;;;;;;14.71;37.00;99643.36;1754129;81;21620;-78
2021/04/02 04:58:45;;;;;;;;;;;;;;;14.71;37.21;99650.09;1733263;81;21123;-78
2021/04/02 05:01:12;;;;;;;;;;;;;;;14.73;37.32;99640.48;1768175;80;20254;-78
2021/04/02 05:03:40;;;;;;;156.55;64.25;;;;;;;14.74;37.31;99642.13;1751769;80;20273;-76
2021/04/02 05:06:16;;;;;;;193.52;79.53;;;;;;;14.64;37.52;99630.41;1763640;80;21138;-76
2021/04/02 05:08:46;;;;;;;172.75;73.83;;;;;;;14.60;37.69;99635.37;1757553;80;21616;-78
2021/04/02 05:11:15;;;;;;;116.28;49.23;;;;;;;14.55;37.77;99632.45;1752112;80;21125;-76
2021/04/02 05:13:43;;;;;;;61.25;30.17;;;;;;;14.43;37.89;99620.58;1753134;80;21138;-75
2021/04/02 05:16:13;;;;;;;53.55;25.17;;;;;;;14.36;38.23;99621.09;1670110;83;21137;-78
2021/04/02 05:18:41;;;;;;;51.73;26.65;;;;;;;14.40;38.63;99621.00;1747389;79;21167;-76
2021/04/02 05:21:09;;;;;;;61.50;30.62;;;;;;;14.44;38.21;99615.49;1714158;82;21125;-78
2021/04/02 05:23:36;;;;;;;99.85;41.58;;;;;;;14.42;38.25;99608.14;1696822;82;21159;-78
2021/04/02 05:26:04;;;;;;;114.37;47.93;;;;;;;14.41;38.31;99612.70;1704819;82;21676;-77
2021/04/02 05:28:31;;;;;;;118.75;52.43;;;;;;;14.43;38.42;99612.49;1688539;83;21138;-76
2021/04/02 05:31:01;;;;;;;108.72;52.65;;;;;;;14.44;38.32;99611.45;1667831;84;21632;-77
2021/04/02 05:33:30;;;;;;;91.40;42.00;;;;;;;14.40;38.40;99608.88;1692918;82;21658;-76
2021/04/02 05:35:59;;;;;;;67.60;32.38;;;;;;;14.20;38.83;99616.36;1757823;80;21141;-76
2021/04/02 05:38:32;;;;;;;50.63;25.92;;;;;;;14.36;38.69;99591.45;1748691;80;21126;-76
2021/04/02 05:41:08;;;;;;;61.70;29.18;;;;;;;14.44;38.93;99594.80;1743299;80;21157;-79
2021/04/02 05:43:49;;;;;;;62.33;28.65;;;;;;;14.52;38.95;99588.39;1739997;81;21571;-76
2021/04/02 05:46:18;;;;;;;77.67;38.40;;;;;;;14.61;38.58;99588.52;1751588;80;21173;-75
2021/04/02 05:48:46;;;;;;;110.15;46.65;;;;;;;14.56;38.61;99603.13;1732138;80;21166;-76
2021/04/02 05:51:19;;;;;;;98.58;44.08;;;;;;;14.49;38.70;99588.83;1746006;80;21145;-77
2021/04/02 05:53:46;;;;;;;;;;;;;;;14.47;38.82;99597.58;1753429;80;21150;-77
2021/04/02 05:56:14;;;;;;;131.45;57.67;;;;;;;14.46;38.86;99587.33;1749040;80;20286;-74
2021/04/02 05:58:42;;;;;;;151.27;66.60;;;;;;;14.40;38.99;99583.28;1742422;80;21161;-78
2021/04/02 06:01:10;;;;;;;160.95;67.80;;;;;;;14.36;39.13;99574.77;1745526;80;21137;-76
2021/04/02 06:03:37;;;;;;;150.15;65.08;;;;;;;14.34;39.28;99576.00;1724287;80;21704;-76
2021/04/02 06:06:05;;;;;;;145.25;65.67;;;;;;;14.40;39.37;99584.63;1727192;81;21110;-75
2021/04/02 06:08:33;;;;;;;127.85;56.70;;;;;;;14.46;39.41;99577.06;1735812;80;21126;-81
2021/04/02 06:11:01;;;;;;;128.25;54.65;;;;;;;14.56;39.41;99576.17;1751710;80;21114;-77
2021/04/02 06:13:28;;;;;;;126.80;54.00;;;;;;;14.66;39.39;99569.85;1747080;80;21173;-78
2021/04/02 06:15:59;;;;;;;;;;;;;;;14.70;39.29;99575.66;1733940;81;21657;-78
2021/04/02 06:18:26;;;;;;;69.77;33.48;;;;;;;14.75;39.31;99579.91;1719984;80;20253;-78
2021/04/02 06:20:57;;;;;;;48.13;24.20;;;;;;;14.81;39.30;99587.72;1672875;83;21117;-78
2021/04/02 06:23:30;;;;;;;40.65;22.73;;;;;;;14.90;39.20;99591.34;1706315;82;21656;-77
2021/04/02 06:26:03;;;;;;;40.15;19.40;;;;;;;14.97;39.18;99573.80;1751663;80;21162;-80
2021/04/02 06:28:37;;;;;;;50.28;25.62;;;;;;;15.06;38.95;99575.25;1731524;81;21777;-77
2021/04/02 06:31:16;;;;;;;53.17;26.75;;;;;;;15.08;38.82;99570.49;1731909;80;21147;-77
2021/04/02 06:33:53;;;;;;;39.00;20.88;;;;;;;15.11;38.80;99578.66;1749835;80;21133;-78
2021/04/02 06:36:28;;;;;;;34.15;19.52;;;;;;;15.12;38.95;99574.40;1743158;80;21125;-78
2021/04/02 06:39:00;;;;;;;28.30;17.02;;;;;;;15.19;39.04;99571.19;1746691;80;21209;-77
2021/04/02 06:41:47;;;;;;;;;;;;;;;;;;;;;
2021/04/02 06:44:15;;;;;;;34.75;20.65;;;;;;;15.33;38.88;99579.27;1692800;81;21573;-76
2021/04/02 06:46:49;;;;;;;31.23;15.75;;;;;;;15.36;38.65;99580.20;1747842;80;21118;-77
2021/04/02 06:49:19;;;;;;;32.67;16.90;;;;;;;15.36;38.59;99582.37;1736055;80;21104;-79
2021/04/02 06:51:49;;;;;;;36.70;17.05;;;;;;;15.31;38.46;99583.53;1710010;81;21182;-75
2021/04/02 06:54:22;;;;;;;36.90;17.40;;;;;;;15.22;38.52;99572.13;1664826;83;21164;-79
2021/04/02 06:57:05;;;;;;;38.30;17.62;;;;;;;15.20;38.80;99572.84;1722975;80;21177;-77
2021/04/02 06:59:34;;;;;;;34.15;17.42;;;;;;;15.17;38.74;99580.02;1728432;80;21113;-76
2021/04/02 07:02:07;;;;;;;35.48;19.82;;;;;;;15.11;38.91;99576.80;1752883;80;21109;-77
2021/04/02 07:07:21;;;;;;;33.35;20.48;;;;;;;15.03;39.31;99562.17;1824271;77;22790;-76
2021/04/02 07:09:49;;;;;;;44.20;21.70;;;;;;;15.01;39.37;99569.66;1800315;78;21165;-76
2021/04/02 07:12:20;;;;;;;;;;;;;;;15.03;39.49;99570.78;1832910;76;21247;-78
2021/04/02 07:14:47;;;;;;;50.38;24.35;;;;;;;15.09;39.74;99568.62;1788016;78;20260;-75
2021/04/02 07:17:17;;;;;;;;;;;;;;;15.17;39.77;99558.44;1835100;76;21172;-78
2021/04/02 07:19:46;;;;;;;43.13;22.37;;;;;;;15.29;39.63;99558.61;1793760;79;20250;-77
2021/04/02 07:22:13;;;;;;;47.65;24.77;;;;;;;15.35;39.50;99563.67;1812497;77;21089;-75
2021/04/02 07:24:42;;;;;;;92.88;41.83;;;;;;;15.42;39.47;99556.41;1807235;78;21162;-75
2021/04/02 07:27:09;;;;;;;138.22;60.25;;;;;;;15.51;39.27;99552.97;1783010;78;21677;-76
2021/04/02 07:29:39;;;;;;;154.03;66.70;;;;;;;15.52;39.14;99543.81;1819412;77;21110;-77
2021/04/02 07:32:07;;;;;;;172.98;65.20;;;;;;;15.50;39.09;99549.44;1801826;77;21148;-78
2021/04/02 07:34:35;;;;;;;122.37;51.65;;;;;;;15.51;39.08;99563.23;1803796;77;21101;-78
2021/04/02 07:37:04;;;;;;;91.92;41.55;;;;;;;15.47;39.16;99570.09;1798796;78;21165;-78
2021/04/02 07:39:33;;;;;;;74.90;36.93;;;;;;;15.54;39.20;99566.87;1833211;76;21121;-77
2021/04/02 07:42:03;;;;;;;42.78;24.50;;;;;;;15.62;39.25;99566.61;1807977;78;20983;-76
2021/04/02 07:44:44;;;;;;;34.38;19.70;;;;;;;15.65;39.17;99567.58;1779638;78;21118;-75
2021/04/02 07:47:14;;;;;;;33.00;18.67;;;;;;;15.70;38.98;99556.97;1786230;78;21108;-76
2021/04/02 07:49:54;;;;;;;37.25;17.00;;;;;;;15.76;38.83;99562.05;1792491;78;21164;-77
2021/04/02 07:52:39;;;;;;;38.98;17.98;;;;;;;15.79;38.82;99566.18;1805969;78;21129;-76
2021/04/02 07:55:11;;;;;;;32.38;16.90;;;;;;;15.79;38.74;99552.68;1803571;78;21169;-78
2021/04/02 07:58:02;;;;;;;38.28;18.67;;;;;;;15.80;38.59;99559.73;1777614;78;21111;-79
2021/04/02 08:00:34;;;;;;;48.17;20.57;;;;;;;15.83;38.54;99556.61;1811287;78;21121;-75
2021/04/02 08:03:15;;;;;;;58.83;29.50;;;;;;;15.88;38.73;99562.20;1781956;78;21117;-77
2021/04/02 08:06:03;;;;;;;39.38;20.77;;;;;;;15.95;38.75;99570.59;1806514;78;21629;-78
2021/04/02 08:08:47;;;;;;;29.65;17.65;;;;;;;16.02;38.62;99585.92;1806770;78;20991;-77
2021/04/02 08:11:32;;;;;;;28.10;15.90;;;;;;;16.09;38.41;99575.92;1834986;77;20939;-76
2021/04/02 08:14:13;;;;;;;26.48;16.05;;;;;;;16.14;38.48;99578.28;1808500;78;21129;-75
2021/04/02 08:16:54;;;;;;;28.90;17.25;;;;;;;16.21;38.41;99575.03;1819623;78;21134;-75
2021/04/02 08:19:28;;;;;;;34.27;18.90;;;;;;;16.28;38.49;99565.52;1814686;77;21125;-77
2021/04/02 08:22:09;;;;;;;44.90;19.98;;;;;;;16.36;38.27;99572.56;1811395;78;21124;-76
2021/04/02 08:24:46;;;;;;;30.10;18.98;;;;;;;16.45;38.22;99555.03;1811541;77;22352;-77
2021/04/02 08:27:14;;;;;;;32.23;16.82;;;;;;;16.37;38.32;99572.86;1808824;78;21655;-76
2021/04/02 08:29:44;;;;;;;27.95;15.18;;;;;;;16.56;38.09;99558.89;1779412;78;21822;-74
2021/04/02 08:32:14;;;;;;;44.08;15.78;;;;;;;16.60;37.96;99557.41;1804133;78;21220;-74
2021/04/02 08:34:43;;;;;;;30.40;14.58;;;;;;;16.51;37.83;99558.73;1806737;78;21638;-76
2021/04/02 08:37:14;;;;;;;28.27;16.73;;;;;;;16.63;37.66;99556.98;1806256;78;21195;-74
2021/04/02 08:39:53;;;;;;;33.45;20.68;;;;;;;16.64;37.64;99566.22;1814870;78;21188;-77
2021/04/02 08:42:23;;;;;;;23.22;15.23;;;;;;;16.65;37.57;99556.23;1812395;78;21129;-75
2021/04/02 08:44:50;;;;;;;30.23;15.55;;;;;;;16.66;37.61;99560.05;1782979;78;22004;-77
2021/04/02 08:47:18;;;;;;;27.67;16.00;;;;;;;16.70;37.52;99558.56;1808347;78;21131;-76
2021/04/02 08:49:52;;;;;;;28.00;17.10;;;;;;;16.64;37.86;99558.11;1811032;78;21906;-78
2021/04/02 08:52:28;;;;;;;26.42;15.70;;;;;;;16.70;37.73;99555.87;1782608;78;21596;-75
2021/04/02 08:55:01;;;;;;;30.45;17.73;;;;;;;16.83;37.65;99567.67;1812935;78;20993;-76
2021/04/02 08:57:32;;;;;;;38.98;20.05;;;;;;;16.78;37.76;99558.86;1783616;78;21355;-77
2021/04/02 09:00:10;;;;;;;29.70;17.55;;;;;;;16.60;38.34;99560.12;1813491;78;21161;-76
2021/04/02 09:02:39;;;;;;;34.30;16.87;;;;;;;16.84;38.70;99559.84;1831289;77;21084;-76
2021/04/02 09:05:08;;;;;;;27.52;16.65;;;;;;;16.85;39.31;99548.83;1809448;78;21128;-75
2021/04/02 09:07:39;;;;;;;24.72;16.80;;;;;;;16.87;39.60;99551.30;1794219;78;21622;-75
2021/04/02 09:10:16;;;;;;;27.52;17.82;;;;;;;16.89;39.68;99539.72;1807800;77;21168;-75
2021/04/02 09:12:49;;;;;;;27.75;18.48;;;;;;;16.91;39.86;99541.70;1804982;77;21588;-76
2021/04/02 09:15:27;;;;;;;30.00;17.90;;;;;;;16.78;39.88;99547.22;1810169;77;21123;-73
2021/04/02 09:18:17;;;;;;;30.05;18.00;;;;;;;16.69;39.94;99537.99;1768885;78;21127;-78
2021/04/02 09:20:46;;;;;;;30.50;18.35;;;;;;;16.72;40.07;99535.42;1807479;78;21120;-77
2021/04/02 09:23:13;;;;;;;25.20;17.75;;;;;;;16.76;39.90;99534.42;1826224;76;21110;-76
2021/04/02 09:25:48;;;;;;;28.65;18.80;;;;;;;16.76;39.88;99524.96;1799030;77;21113;-75
2021/04/02 09:28:24;;;;;;;28.55;17.77;;;;;;;16.81;40.07;99519.74;1799286;78;21105;-76
2021/04/02 09:30:51;;;;;;;42.03;20.17;;;;;;;16.90;40.18;99522.47;1816566;77;21109;-79
2021/04/02 09:33:19;;;;;;;27.00;16.97;;;;;;;17.01;39.83;99523.08;1779745;77;21133;-77
2021/04/02 09:35:47;;;;;;;29.45;18.73;;;;;;;17.06;39.76;99522.41;1793911;78;21156;-77
2021/04/02 09:38:15;;;;;;;24.98;17.30;;;;;;;17.10;39.53;99514.97;1803675;77;21110;-79
2021/04/02 09:40:44;;;;;;;;;;;;;;;17.17;39.48;99517.09;1831384;77;21089;-77
2021/04/02 09:43:11;;;;;;;28.90;19.27;;;;;;;17.27;39.43;99511.69;1830312;76;20648;-76
2021/04/02 09:45:39;;;;;;;25.50;17.73;;;;;;;17.34;39.35;99507.02;1830637;77;21149;-77
2021/04/02 09:48:20;;;;;;;31.00;19.25;;;;;;;17.44;39.33;99515.43;1793633;78;21150;-77
2021/04/02 09:50:48;;;;;;;29.35;22.05;;;;;;;17.52;39.35;99517.84;1802179;77;21598;-76
2021/04/02 09:53:15;;;;;;;26.37;18.15;;;;;;;17.55;39.19;99514.69;1746130;77;21121;-74
2021/04/02 09:55:43;;;;;;;26.87;19.23;;;;;;;17.58;38.94;99513.42;1800455;78;21137;-77
2021/04/02 09:58:11;;;;;;;25.52;16.67;;;;;;;17.62;39.43;99515.45;1803409;78;20978;-80
2021/04/02 10:00:38;;;;;;;35.30;18.60;;;;;;;17.66;40.23;99513.91;1813115;77;21097;-76
2021/04/02 10:03:13;;;;;;;27.20;16.87;;;;;;;17.72;40.37;99516.27;1821184;77;21145;-77
2021/04/02 10:05:40;;;;;;;23.65;15.90;;;;;;;17.73;40.61;99511.14;1817565;77;21186;-74
2021/04/02 10:08:07;;;;;;;;;;;;;;;17.75;40.46;99509.05;1818804;77;21202;-77
2021/04/02 10:10:34;;;;;;;25.75;15.55;;;;;;;17.78;40.46;99514.55;1815407;77;20287;-78
2021/04/02 10:13:02;;;;;;;27.62;19.05;;;;;;;17.78;40.46;99511.84;1807463;78;21249;-76
2021/04/02 10:15:29;;;;;;;24.90;18.17;;;;;;;17.81;40.64;99514.10;1812004;78;21206;-77
2021/04/02 10:17:58;;;;;;;31.82;22.48;;;;;;;17.82;40.86;99515.22;1809665;78;21247;-77
2021/04/02 10:20:25;;;;;;;36.40;23.45;;;;;;;17.87;41.05;99519.95;1824165;77;21208;-75
2021/04/02 10:22:52;;;;;;;;;;;;;;;17.87;41.13;99514.53;1804431;78;21181;-78
2021/04/02 10:25:19;;;;;;;30.55;20.17;;;;;;;17.86;41.27;99516.42;1802368;78;20305;-80
2021/04/02 10:27:47;;;;;;;33.90;20.17;;;;;;;17.87;41.37;99512.65;1804006;78;21207;-77
2021/04/02 10:30:16;;;;;;;31.25;21.23;;;;;;;17.86;41.44;99510.17;1803740;78;21634;-77
2021/04/02 10:32:43;;;;;;;30.40;20.45;;;;;;;17.87;41.53;99516.71;1806614;78;21124;-75
2021/04/02 10:35:12;;;;;;;29.60;20.50;;;;;;;17.86;41.58;99517.77;1810803;78;21136;-75
2021/04/02 10:37:40;;;;;;;33.88;22.15;;;;;;;17.83;41.33;99516.05;1805350;78;21168;-78
2021/04/02 10:40:08;;;;;;;32.45;21.57;;;;;;;17.78;41.89;99512.66;1809465;78;21119;-77
2021/04/02 10:42:36;;;;;;;38.25;25.05;;;;;;;17.79;42.27;99512.95;1808811;78;21134;-76
2021/04/02 10:45:05;;;;;;;42.60;28.10;;;;;;;17.77;42.63;99519.14;1784841;78;21157;-77
2021/04/02 10:47:33;;;;;;;31.90;24.15;;;;;;;17.73;43.29;99517.41;1810130;78;21234;-77
2021/04/02 10:50:04;;;;;;;42.48;24.27;;;;;;;17.65;43.72;99516.86;1807740;78;21148;-75
2021/04/02 10:52:31;;;;;;;36.08;23.18;;;;;;;17.62;43.96;99515.95;1804757;78;21140;-76
2021/04/02 10:54:58;;;;;;;;;;;;;;;17.58;44.09;99510.19;1810921;78;21090;-78
2021/04/02 10:57:25;;;;;;;35.08;21.48;;;;;;;17.58;44.08;99512.89;1808255;78;20244;-77
2021/04/02 10:59:55;;;;;;;39.23;22.07;;;;;;;17.57;44.31;99509.86;1804039;78;21531;-75
2021/04/02 11:02:23;;;;;;;35.83;23.55;;;;;;;17.59;44.63;99513.72;1778695;78;21164;-77
2021/04/02 11:04:50;;;;;;;40.73;25.15;;;;;;;17.57;45.15;99509.04;1807154;78;21201;-76
2021/04/02 11:07:17;;;;;;;;;;;;;;;17.58;45.67;99512.07;1807870;78;21192;-77
2021/04/02 11:09:46;;;;;;;34.25;22.90;;;;;;;17.56;45.92;99512.80;1782110;78;20271;-75
2021/04/02 11:12:13;;;;;;;34.70;23.00;;;;;;;17.53;46.25;99518.14;1809414;78;21010;-77
2021/04/02 11:14:41;;;;;;;39.73;25.15;;;;;;;17.53;46.68;99514.60;1809609;78;21152;-76
2021/04/02 11:17:09;;;;;;;43.00;23.47;;;;;;;17.53;46.85;99526.78;1807449;78;21109;-76
2021/04/02 11:19:36;;;;;;;44.90;26.15;;;;;;;17.53;46.94;99518.66;1807942;78;21124;-77
2021/04/02 11:22:04;;;;;;;41.02;26.10;;;;;;;17.56;47.19;99519.05;1778138;78;21120;-78
2021/04/02 11:24:31;;;;;;;39.85;25.97;;;;;;;17.57;47.32;99528.81;1782996;78;21173;-76
2021/04/02 11:26:59;;;;;;;42.15;26.52;;;;;;;17.60;47.47;99535.14;1807853;78;21150;-76
2021/04/02 11:29:26;;;;;;;35.98;24.72;;;;;;;17.62;47.68;99533.05;1776496;78;21129;-77
2021/04/02 11:31:54;;;;;;;32.58;22.98;;;;;;;17.62;47.80;99538.47;1805352;78;21130;-76
2021/04/02 11:34:21;;;;;;;29.75;21.42;;;;;;;17.66;47.71;99534.76;1805995;78;21476;-80
2021/04/02 11:36:48;;;;;;;;;;;;;;;17.64;47.70;99536.87;1813436;78;21932;-77
2021/04/02 11:39:15;;;;;;;33.13;21.87;;;;;;;17.62;47.85;99534.41;1804912;78;20291;-79
2021/04/02 11:41:43;;;;;;;33.33;22.73;;;;;;;17.59;48.13;99534.03;1782680;78;21110;-78